Airfield :
LOGIN :

Register | Disclaimer

   EN    FR    IT 

 










Legend :    VFR   Marginal VFR   IFR   Intensive IFR   Very Intensive IFR
Visi :
Ceiling :
>= 8 km
>= 3000ft
5 to 8 km
1000 to 3000 ft
1500m to 5 km
500 to 1000 ft
800 to 1500m
200 to 500 ft
< 800m
< 200 ft
Symbols :   Thunderstorms  Fog  Heavy snow  Heavy precipitations  Wind > 20 kt
SIGMETs :     Misc.  Thunderstorms  Icing  Turbulence  Mountain Waves  Volcanic Ashes






- Airport Elevation : 53 ft
- IATA code : HAM


EDDH - Hamburg

CURRENT METAR :
  • 301020Z AUTO 27015G27KT 9999 -SHRA BKN021 BKN043 FEW///CB 05/03 Q1004 RESHRA TEMPO 27020G35KT SHRA FEW008 BKN015CB

EXPIRED METARs :
  • 300950Z AUTO 27016G26KT 230V300 9999 VCSH SCT021 FEW///TCU 07/03 Q1004 TEMPO 27020G35KT SHRA FEW008 BKN015CB
  • 300920Z AUTO 27015KT 9999 VCSH SCT020 BKN046 FEW///TCU 06/03 Q1005 TEMPO 27020G35KT SHRA FEW008 BKN015CB
  • 300850Z AUTO 26016KT 9999 BKN018 BKN027 BKN036 06/03 Q1005 RESHRA TEMPO 27020G35KT SHRA FEW008 BKN015CB
  • 300820Z AUTO 30011KT 260V330 9999 SHRA BKN018 BKN039 FEW///CB 05/03 Q1005 TEMPO 27020G35KT NSW
  • 300750Z AUTO 26012KT 9999 -SHRA SCT018 FEW///CB 05/03 Q1005 TEMPO 27020G35KT SHRA

TAF TAF EDDH
Valid from the 30 at 06:00 until the 31 at 12:00 UTC


300500Z 3006/3112 28015G25KT 9999 SCT015 BKN025
TEMPO 3007/3019 30020G35KT BKN015CB
PROB40
TEMPO 3008/3016 4500 SHRA SCT009 BKN013CB
PROB30
TEMPO 3009/3014 30025G40KT 2500 TSGSRA BKN009CB
BECMG 3023/3101 26012KT
TEMPO 3104/3112 SCT006 BKN011
PROB40
TEMPO 3109/3112 25015G25KT RA BKN009



MET'MAP, your aeronautical weather chart ! - Copyright ORBIFLY December 2007 - Disclaimer

ORBIFLY MET'MAP TEAM :

Programming & Development : Alexandra Zaïnal
Original concept : Baudouin d'Aumeries
Technical & hardware support : Manuel Goepfert
Assistance : Marc-Olivier Méhu




SOURCES & CREDITS :

   NOAA